Amity, Pennsylvania
Current Conditions -  °F | °C
As of 1:15 AM on Monday 26 Jan 2015 (Local Time) from KAFJ Reporting Station
Overcast Overcast  
Wind Chill: -1°   Ceiling: 500
Heat Index: -1°   Visibility: 2.5mi
Dew Point: -2°   Wind: 0mph
Humidity: 93%   Direction: NA
Pressure: 29.73"   Gusts: NA
Location:  40.03°N, 80.2°W
Report Text: KAFJ 260615Z AUTO 00000KT 2 1/2SM OVC005 M01/M02 A2973 RMK AO1
Loading
Personal Weather Stations






























Interactive Weather Map New forecast layout! Learn more

10-Day Weather Forecast

Advertisements
Track Severe Weather on mobile